NCAR-RAP Real-Time Weather Data

Output produced by METARs form (19 June 2019  11:57 UTC)
found at http://weather.rap.ucar.edu/surface/
 
KALO 191154Z 03003KT 2 1/2SM BR OVC070 18/17 A2982 RMK AO2 SLP094 60002 70048 T01830167 10194 20178 55002
KALO 191134Z 33003KT 2SM BR OVC065 18/17 A2983 RMK AO2 T01780167
KALO 191054Z 36003KT 3SM BR OVC070 18/17 A2982 RMK AO2 SLP093 T01780167
KALO 190954Z AUTO 00000KT 3SM BR SCT006 BKN070 OVC120 18/17 A2981 RMK AO2 SLP091 T01780167
KALO 190944Z AUTO 04003KT 2 1/2SM BR FEW006 BKN070 BKN120 18/17 A2981 RMK AO2 T01780167
KALO 190854Z AUTO 00000KT 6SM BR FEW019 SCT100 SCT120 18/17 A2983 RMK AO2 RAB04E13 SLP096 P0000 60002 T01830167 58012
KALO 190810Z AUTO 15004KT 6SM -RA BR SCT023 BKN065 OVC080 18/17 A2984 RMK AO2 RAB04 P0000 T01830167
KALO 190754Z AUTO 18003KT 5SM BR SCT017 BKN023 OVC075 18/17 A2985 RMK AO2 RAE54 SLP104 P0002 T01830172
KALO 190740Z AUTO 20003KT 4SM -RA BR BKN018 OVC060 18/17 A2985 RMK AO2 P0001 T01830172
KALO 190654Z AUTO 00000KT 5SM -RA BR FEW050 BKN060 OVC075 19/17 A2986 RMK AO2 RAB31 SLP106 P0000 T01890172
KALO 190554Z AUTO 16003KT 7SM BKN060 BKN090 OVC110 19/18 A2986 RMK AO2 SLP109 60000 T01940178 10222 20194 402330183 58003
KALO 190454Z AUTO 00000KT 10SM BKN039 OVC049 21/17 A2988 RMK AO2 RAB07E30 SLP113 P0000 T02060167
KALO 190354Z AUTO 00000KT 10SM OVC043 20/18 A2988 RMK AO2 SLP114 T02000183
KALO 190254Z AUTO 00000KT 10SM OVC038 21/18 A2987 RMK AO2 SLP112 T02060178 55000
KALO 190154Z AUTO 30003KT 10SM BKN045 OVC060 21/17 A2987 RMK AO2 SLP109 T02060172
KALO 190054Z 30003KT 10SM BKN048 OVC060 21/17 A2987 RMK AO2 SLP111 T02110172
KALO 182354Z 00000KT 10SM OVC043 22/17 A2987 RMK AO2 SLP111 60000 T02220172 10233 20211 56015
KALO 182254Z 31003KT 10SM OVC049 22/17 A2988 RMK AO2 SLP116 T02220167
KALO 182154Z 31004KT 10SM SCT043 BKN055 23/17 A2990 RMK AO2 SLP120 T02280167
KALO 182054Z 32004KT 10SM OVC049 22/18 A2992 RMK AO2 RAE25 SLP127 P0000 60000 T02170178 58007
KALO 182015Z 34007KT 8SM -RA FEW015 BKN032 OVC039 21/18 A2992 RMK AO2 P0000 T02110183
KALO 181954Z 31007KT 8SM -RA SCT015 BKN024 OVC090 22/18 A2992 RMK AO2 RAB46 SLP129 P0000 T02170183
KALO 181854Z 29006KT 10SM FEW012 OVC038 22/18 A2994 RMK AO2 SLP134 T02170178
KALO 181851Z 30006KT 10SM FEW012 OVC036 22/18 A2994 RMK AO2
KALO 181754Z 22005KT 10SM BKN015 BKN024 OVC036 22/18 A2995 RMK AO2 SLP138 60046 T02170183 10217 20183
KALO 181744Z 10SM BKN016 OVC100 22/18 A2995 RMK AO2 T02170183
KALO 181654Z AUTO 24004KT 9SM 20/18 A2996 RMK AO2 RAE28 SLP141 P0002 T02000178 $
KALO 181622Z 5SM -RA BR FEW006 FEW036 OVC048 19/18 A2996 RMK AO2 P0002 T01940183
KALO 181611Z 00000KT 2 1/2SM -RA BR FEW005 SCT037 OVC048 19/18 A2997 RMK AO2 P0001 T01940178
KALO 181603Z 22003KT 3SM -RA BR FEW004 SCT040 OVC048 19/18 A2997 RMK AO2 P0000 T01940178
KALO 181554Z 23003KT 2 1/2SM -RA BR FEW004 FEW030 OVC044 19/18 A2997 RMK AO2 SLP146 P0026 T01940183
KALO 181545Z 22004KT 2 1/2SM -RA BR FEW004 BKN044 OVC050 19/18 A2997 RMK AO2 P0025 T01890178
KALO 181532Z 23006KT 1 1/2SM R12/5000VP6000FT RA BR FEW006 BKN042 OVC050 19/18 A2997 RMK AO2 P0024 T01890178
KALO 181506Z 23006KT 3/4SM R12/2600VP6000FT +RA BR FEW009 OVC037 19/18 A2997 RMK AO2 P0003 T01890178